< < Back
Terminal Aerodrome Forecast


Current Version              Previous Versions:   1  2  3  4  5  6  7  8  9  

Terminal Aerodrome Forecast

846
FTUS44 KBMX 301700
TAFANB
TAF
KANB 301734Z 3018/3118 36010G18KT P6SM SKC
     FM310000 04003KT P6SM SCT250
     FM311400 08003KT P6SM BKN250=



Latest METAR

988
SAUS70 KWBC 310800 RRE
MTRANB
METAR KANB 310753Z AUTO 09003KT 10SM CLR M02/M05 A3036 RMK AO2 SLP291
T10171050


USA.gov is the U.S. government's official web portal to all federal, state and local government web resources and services.